Matthews, IN

1:15 AM EST on November 28, 2014 (GMT -0500)
Marion Municipal | Change Station
CLOSE
Current Station
Airport
Location: Marion,
Elevation: 856 ft
Nearby Weather Stations

Elev 856 ft 40.49 °N, 85.68 °W | Updated 20 minutes ago

Mostly Cloudy
Mostly Cloudy
23 °F
Feels Like 17 °F
N
5
Wind Variable Wind from WNW
Gusts 8 mph

Today
High -- | Low -- °F
--% Chance of Precip.
Yesterday
High -- | Low -- °F
Precip. -- in
7:42 AM 5:17 PM
Waxing Crescent, 37% visible
Pressure 30.37 in
Visibility 10.0 miles
Clouds
Windchill 17 °F
Dew Point 15 °F
Humidity 71%
Rainfall 0.00 in
Snow Depth Not available.
UV Not available.
Pollen .10 out of 12
Air Quality Not available.
Flu Activity Not available.
METAR KMZZ 280555Z AUTO 30004KT 10SM M05/M09 A3037 RMK AO2 T10481093 10178 21139 401781139

More Conditions Fewer Conditions

Pressure 30.37 in
Visibility 10.0 miles
Clouds
Windchill 17 °F
Dew Point 15 °F
Humidity 71%
Rainfall 0.00 in
Snow Depth Not available.
UV Not available.
Pollen .10 out of 12
Air Quality Not available.
Flu Activity Not available.
METAR KMZZ 280555Z AUTO 30004KT 10SM M05/M09 A3037 RMK AO2 T10481093 10178 21139 401781139

More Conditions Fewer Conditions

10-Day Weather Forecast

Almanac

Astronomy

Nov. 28, 2014 Rise Set
Actual Time
Civil Twilight
Nautical Twilight
Astronomical Twilight
Moon
Length of Visible Light
Length of Day
Tomorrow will be .
, % of the Moon is Illuminated

Today's Extremes

State Highs State Lows

Community

WunderPhotos

Upload Photos

1,774,197 photos uploaded!

WunderBlogs® & News

Nearby

Air Quality

  Air Quality AQ Index Pollutant
Not available.

Snow Depth

Station Depth Elevation

Earthquake Activity

City Distance Mag. Time & Date
Minimum magnitude displayed is 2.5.

Coastal Water Temperatures

Place Temperature

Nearby Weather Stations